sensor_id;sensor_type;location;lat;lon;timestamp;pressure;altitude;pressure_sealevel;temperature;humidity
67818;BME280;54614;47.576;7.524;2022-12-20T00:01:16;99105.44;;;20.66;33.93
67818;BME280;54614;47.576;7.524;2022-12-20T00:03:43;99101.59;;;20.68;33.87
67818;BME280;54614;47.576;7.524;2022-12-20T00:06:11;99106.28;;;20.66;34.16
67818;BME280;54614;47.576;7.524;2022-12-20T00:08:38;99105.09;;;20.69;33.78
67818;BME280;54614;47.576;7.524;2022-12-20T00:11:06;99100.41;;;20.71;33.76
67818;BME280;54614;47.576;7.524;2022-12-20T00:13:33;99096.06;;;20.70;33.74
67818;BME280;54614;47.576;7.524;2022-12-20T00:16:21;99094.41;;;20.69;33.77
67818;BME280;54614;47.576;7.524;2022-12-20T00:18:52;99093.09;;;20.65;33.94
67818;BME280;54614;47.576;7.524;2022-12-20T00:21:20;99081.03;;;20.69;34.03
67818;BME280;54614;47.576;7.524;2022-12-20T00:23:45;99082.38;;;20.65;33.79
67818;BME280;54614;47.576;7.524;2022-12-20T00:26:16;99088.75;;;20.64;33.95
67818;BME280;54614;47.576;7.524;2022-12-20T00:28:44;99089.41;;;20.66;33.96
67818;BME280;54614;47.576;7.524;2022-12-20T00:31:12;99081.56;;;20.64;33.91
67818;BME280;54614;47.576;7.524;2022-12-20T00:33:39;99080.38;;;20.67;33.93
67818;BME280;54614;47.576;7.524;2022-12-20T00:36:07;99082.56;;;20.63;33.88
67818;BME280;54614;47.576;7.524;2022-12-20T00:38:33;99090.41;;;20.65;33.82
67818;BME280;54614;47.576;7.524;2022-12-20T00:41:09;99085.06;;;20.65;33.85
67818;BME280;54614;47.576;7.524;2022-12-20T00:43:37;99082.56;;;20.63;33.89
67818;BME280;54614;47.576;7.524;2022-12-20T00:46:05;99089.41;;;20.66;33.93
67818;BME280;54614;47.576;7.524;2022-12-20T00:48:32;99078.06;;;20.64;33.97
67818;BME280;54614;47.576;7.524;2022-12-20T00:51:08;99075.22;;;20.65;33.80
67818;BME280;54614;47.576;7.524;2022-12-20T00:53:35;99077.38;;;20.62;34.00
67818;BME280;54614;47.576;7.524;2022-12-20T00:56:02;99070.22;;;20.62;33.86
67818;BME280;54614;47.576;7.524;2022-12-20T00:58:28;99069.72;;;20.58;33.95
67818;BME280;54614;47.576;7.524;2022-12-20T01:00:56;99071.03;;;20.63;33.96
67818;BME280;54614;47.576;7.524;2022-12-20T01:03:22;99057.84;;;20.61;33.83
67818;BME280;54614;47.576;7.524;2022-12-20T01:05:56;99058.34;;;20.65;33.88
67818;BME280;54614;47.576;7.524;2022-12-20T01:08:24;99059.34;;;20.64;33.84
67818;BME280;54614;47.576;7.524;2022-12-20T01:13:39;99057.84;;;20.61;33.90
67818;BME280;54614;47.576;7.524;2022-12-20T01:16:16;99057.19;;;20.59;33.98
67818;BME280;54614;47.576;7.524;2022-12-20T01:18:45;99049.19;;;20.59;33.87
67818;BME280;54614;47.576;7.524;2022-12-20T01:21:14;99060.88;;;20.58;33.96
67818;BME280;54614;47.576;7.524;2022-12-20T01:23:41;99065.03;;;20.60;33.91
67818;BME280;54614;47.576;7.524;2022-12-20T01:26:12;99059.03;;;20.58;33.78
67818;BME280;54614;47.576;7.524;2022-12-20T01:28:41;99060.53;;;20.61;33.84
67818;BME280;54614;47.576;7.524;2022-12-20T01:31:10;99067.88;;;20.59;33.89
67818;BME280;54614;47.576;7.524;2022-12-20T01:33:37;99066.03;;;20.59;33.91
67818;BME280;54614;47.576;7.524;2022-12-20T01:36:13;99067.41;;;20.55;33.95
67818;BME280;54614;47.576;7.524;2022-12-20T01:38:40;99077.25;;;20.55;33.88
67818;BME280;54614;47.576;7.524;2022-12-20T01:41:06;99076.06;;;20.57;33.80
67818;BME280;54614;47.576;7.524;2022-12-20T01:46:52;99079.25;;;20.53;33.97
67818;BME280;54614;47.576;7.524;2022-12-20T01:49:43;99080.09;;;20.53;33.92
67818;BME280;54614;47.576;7.524;2022-12-20T01:52:35;99072.25;;;20.52;33.95
67818;BME280;54614;47.576;7.524;2022-12-20T01:55:11;99061.41;;;20.53;33.91
67818;BME280;54614;47.576;7.524;2022-12-20T01:57:50;99053.56;;;20.52;34.02
67818;BME280;54614;47.576;7.524;2022-12-20T02:00:18;99054.22;;;20.54;33.99
67818;BME280;54614;47.576;7.524;2022-12-20T02:02:47;99052.53;;;20.53;33.97
67818;BME280;54614;47.576;7.524;2022-12-20T02:05:17;99039.50;;;20.58;33.77
67818;BME280;54614;47.576;7.524;2022-12-20T02:07:48;99033.00;;;20.52;33.85
67818;BME280;54614;47.576;7.524;2022-12-20T02:10:17;99030.34;;;20.52;33.93
67818;BME280;54614;47.576;7.524;2022-12-20T02:12:46;99023.31;;;20.51;33.97
67818;BME280;54614;47.576;7.524;2022-12-20T02:15:48;99023.63;;;20.56;33.94
67818;BME280;54614;47.576;7.524;2022-12-20T02:18:38;99018.81;;;20.52;34.04
67818;BME280;54614;47.576;7.524;2022-12-20T02:21:37;99008.47;;;20.49;34.04
67818;BME280;54614;47.576;7.524;2022-12-20T02:33:03;99003.59;;;20.52;33.97
67818;BME280;54614;47.576;7.524;2022-12-20T02:35:36;99001.47;;;20.48;33.91
67818;BME280;54614;47.576;7.524;2022-12-20T02:41:02;98995.63;;;20.44;34.00
67818;BME280;54614;47.576;7.524;2022-12-20T02:43:31;98979.25;;;20.47;34.02
67818;BME280;54614;47.576;7.524;2022-12-20T02:46:19;98992.59;;;20.47;33.98
67818;BME280;54614;47.576;7.524;2022-12-20T02:48:48;98977.22;;;20.49;34.00
67818;BME280;54614;47.576;7.524;2022-12-20T02:51:17;98989.09;;;20.47;33.96
67818;BME280;54614;47.576;7.524;2022-12-20T02:53:45;98979.44;;;20.46;33.90
67818;BME280;54614;47.576;7.524;2022-12-20T02:56:22;98983.41;;;20.50;33.92
67818;BME280;54614;47.576;7.524;2022-12-20T02:59:22;98971.22;;;20.47;33.93
67818;BME280;54614;47.576;7.524;2022-12-20T03:01:53;98970.72;;;20.52;33.76
67818;BME280;54614;47.576;7.524;2022-12-20T03:04:30;98973.06;;;20.47;34.01
67818;BME280;54614;47.576;7.524;2022-12-20T03:07:08;98982.75;;;20.48;34.04
67818;BME280;54614;47.576;7.524;2022-12-20T03:09:39;98974.91;;;20.46;33.89
67818;BME280;54614;47.576;7.524;2022-12-20T03:12:08;98967.72;;;20.47;33.93
67818;BME280;54614;47.576;7.524;2022-12-20T03:14:34;98969.09;;;20.43;34.00
67818;BME280;54614;47.576;7.524;2022-12-20T03:17:00;98956.38;;;20.45;33.96
67818;BME280;54614;47.576;7.524;2022-12-20T03:19:27;98958.41;;;20.43;33.98
67818;BME280;54614;47.576;7.524;2022-12-20T03:21:52;98957.56;;;20.42;33.88
67818;BME280;54614;47.576;7.524;2022-12-20T03:24:18;98970.41;;;20.47;33.87
67818;BME280;54614;47.576;7.524;2022-12-20T03:26:44;98954.72;;;20.44;33.90
67818;BME280;54614;47.576;7.524;2022-12-20T03:29:10;98950.88;;;20.38;34.10
67818;BME280;54614;47.576;7.524;2022-12-20T03:31:37;98953.72;;;20.45;33.97
67818;BME280;54614;47.576;7.524;2022-12-20T03:34:04;98956.22;;;20.46;33.88
67818;BME280;54614;47.576;7.524;2022-12-20T03:36:31;98947.88;;;20.41;34.06
67818;BME280;54614;47.576;7.524;2022-12-20T03:38:57;98948.38;;;20.45;33.94
67818;BME280;54614;47.576;7.524;2022-12-20T03:41:23;98953.53;;;20.46;33.95
67818;BME280;54614;47.576;7.524;2022-12-20T03:43:49;98931.50;;;20.44;33.89
67818;BME280;54614;47.576;7.524;2022-12-20T03:46:16;98952.06;;;20.44;33.93
67818;BME280;54614;47.576;7.524;2022-12-20T03:48:42;98955.56;;;20.44;33.95
67818;BME280;54614;47.576;7.524;2022-12-20T03:51:09;98946.72;;;20.44;33.91
67818;BME280;54614;47.576;7.524;2022-12-20T03:53:35;98947.22;;;20.39;34.08
67818;BME280;54614;47.576;7.524;2022-12-20T03:56:01;98938.38;;;20.39;33.99
67818;BME280;54614;47.576;7.524;2022-12-20T03:58:27;98943.03;;;20.37;34.11
67818;BME280;54614;47.576;7.524;2022-12-20T04:00:52;98946.22;;;20.40;33.93
67818;BME280;54614;47.576;7.524;2022-12-20T04:03:18;98950.56;;;20.41;34.03
67818;BME280;54614;47.576;7.524;2022-12-20T04:05:44;98949.38;;;20.44;33.87
67818;BME280;54614;47.576;7.524;2022-12-20T04:08:10;98946.06;;;20.42;34.11
67818;BME280;54614;47.576;7.524;2022-12-20T04:10:37;98949.72;;;20.41;34.02
67818;BME280;54614;47.576;7.524;2022-12-20T04:13:22;98955.06;;;20.41;33.91
67818;BME280;54614;47.576;7.524;2022-12-20T04:15:48;98946.88;;;20.42;33.95
67818;BME280;54614;47.576;7.524;2022-12-20T04:18:14;98942.22;;;20.36;34.04
67818;BME280;54614;47.576;7.524;2022-12-20T04:20:40;98940.06;;;20.32;34.09
67818;BME280;54614;47.576;7.524;2022-12-20T04:23:06;98945.41;;;20.32;34.19
67818;BME280;54614;47.576;7.524;2022-12-20T04:25:32;98944.56;;;20.39;33.99
67818;BME280;54614;47.576;7.524;2022-12-20T04:27:57;98935.84;;;20.37;33.89
67818;BME280;54614;47.576;7.524;2022-12-20T04:30:23;98938.34;;;20.47;33.63
67818;BME280;54614;47.576;7.524;2022-12-20T04:32:49;98934.53;;;20.41;33.51
67818;BME280;54614;47.576;7.524;2022-12-20T04:35:19;98929.38;;;20.32;33.66
67818;BME280;54614;47.576;7.524;2022-12-20T04:37:46;98929.06;;;20.26;33.69
67818;BME280;54614;47.576;7.524;2022-12-20T04:40:12;98931.59;;;20.20;33.64
67818;BME280;54614;47.576;7.524;2022-12-20T04:42:38;98933.78;;;20.16;33.87
67818;BME280;54614;47.576;7.524;2022-12-20T04:45:04;98928.81;;;20.13;33.82
67818;BME280;54614;47.576;7.524;2022-12-20T04:47:30;98929.63;;;20.14;33.91
67818;BME280;54614;47.576;7.524;2022-12-20T04:49:56;98939.00;;;20.10;33.78
67818;BME280;54614;47.576;7.524;2022-12-20T04:52:22;98932.16;;;20.07;33.72
67818;BME280;54614;47.576;7.524;2022-12-20T04:55:07;98934.19;;;20.05;33.72
67818;BME280;54614;47.576;7.524;2022-12-20T04:57:33;98931.34;;;20.07;33.97
67818;BME280;54614;47.576;7.524;2022-12-20T04:59:59;98924.69;;;20.03;33.83
67818;BME280;54614;47.576;7.524;2022-12-20T05:02:24;98914.31;;;20.08;33.70
67818;BME280;54614;47.576;7.524;2022-12-20T05:04:50;98910.97;;;20.06;33.75
67818;BME280;54614;47.576;7.524;2022-12-20T05:07:16;98902.19;;;19.97;33.73
67818;BME280;54614;47.576;7.524;2022-12-20T05:09:42;98903.66;;;20.00;33.81
67818;BME280;54614;47.576;7.524;2022-12-20T05:12:08;98910.81;;;20.07;33.65
67818;BME280;54614;47.576;7.524;2022-12-20T05:14:33;98917.03;;;20.00;33.58
67818;BME280;54614;47.576;7.524;2022-12-20T05:16:59;98910.81;;;20.07;33.86
67818;BME280;54614;47.576;7.524;2022-12-20T05:19:25;98901.75;;;20.16;33.87
67818;BME280;54614;47.576;7.524;2022-12-20T05:21:51;98900.56;;;20.19;33.90
67818;BME280;54614;47.576;7.524;2022-12-20T05:24:35;98900.03;;;20.23;33.88
67818;BME280;54614;47.576;7.524;2022-12-20T05:27:19;98893.69;;;20.24;33.60
67818;BME280;54614;47.576;7.524;2022-12-20T05:29:45;98890.66;;;20.27;33.76
67818;BME280;54614;47.576;7.524;2022-12-20T05:32:11;98899.50;;;20.28;33.79
67818;BME280;54614;47.576;7.524;2022-12-20T05:34:36;98894.16;;;20.28;33.88
67818;BME280;54614;47.576;7.524;2022-12-20T05:37:02;98896.31;;;20.33;33.72
67818;BME280;54614;47.576;7.524;2022-12-20T05:39:28;98890.13;;;20.32;33.76
67818;BME280;54614;47.576;7.524;2022-12-20T05:41:54;98897.78;;;20.35;33.68
67818;BME280;54614;47.576;7.524;2022-12-20T05:44:20;98895.13;;;20.35;33.64
67818;BME280;54614;47.576;7.524;2022-12-20T05:46:49;98893.47;;;20.34;33.74
67818;BME280;54614;47.576;7.524;2022-12-20T05:49:15;98890.31;;;20.31;33.76
67818;BME280;54614;47.576;7.524;2022-12-20T05:51:41;98885.16;;;20.29;33.87
67818;BME280;54614;47.576;7.524;2022-12-20T05:54:07;98882.78;;;20.34;33.78
67818;BME280;54614;47.576;7.524;2022-12-20T05:56:33;98878.44;;;20.33;33.65
67818;BME280;54614;47.576;7.524;2022-12-20T05:58:59;98882.13;;;20.32;34.02
67818;BME280;54614;47.576;7.524;2022-12-20T06:01:25;98886.34;;;20.26;34.00
67818;BME280;54614;47.576;7.524;2022-12-20T06:03:50;98881.66;;;20.28;33.90
67818;BME280;54614;47.576;7.524;2022-12-20T06:06:17;98888.94;;;20.35;33.79
67818;BME280;54614;47.576;7.524;2022-12-20T06:08:44;98884.44;;;20.35;33.83
67818;BME280;54614;47.576;7.524;2022-12-20T06:11:09;98888.47;;;20.31;33.97
67818;BME280;54614;47.576;7.524;2022-12-20T06:13:36;98887.47;;;20.32;33.91
67818;BME280;54614;47.576;7.524;2022-12-20T06:16:02;98888.47;;;20.31;33.90
67818;BME280;54614;47.576;7.524;2022-12-20T06:18:28;98887.28;;;20.34;33.81
67818;BME280;54614;47.576;7.524;2022-12-20T06:20:53;98880.28;;;20.33;33.80
67818;BME280;54614;47.576;7.524;2022-12-20T06:23:20;98882.78;;;20.34;33.84
67818;BME280;54614;47.576;7.524;2022-12-20T06:25:46;98875.94;;;20.32;33.86
67818;BME280;54614;47.576;7.524;2022-12-20T06:28:12;98878.44;;;20.33;33.84
67818;BME280;54614;47.576;7.524;2022-12-20T06:30:38;98873.63;;;20.28;33.94
67818;BME280;54614;47.576;7.524;2022-12-20T06:33:03;98870.59;;;20.32;33.84
67818;BME280;54614;47.576;7.524;2022-12-20T06:35:30;98869.41;;;20.34;33.88
67818;BME280;54614;47.576;7.524;2022-12-20T06:37:56;98876.78;;;20.32;33.92
67818;BME280;54614;47.576;7.524;2022-12-20T06:40:22;98863.44;;;20.32;34.08
67818;BME280;54614;47.576;7.524;2022-12-20T06:42:48;98861.09;;;20.29;33.80
67818;BME280;54614;47.576;7.524;2022-12-20T06:45:15;98867.59;;;20.35;33.67
67818;BME280;54614;47.576;7.524;2022-12-20T06:47:41;98871.41;;;20.40;33.71
67818;BME280;54614;47.576;7.524;2022-12-20T06:50:07;98867.75;;;20.33;33.78
67818;BME280;54614;47.576;7.524;2022-12-20T06:52:34;98865.75;;;20.35;34.03
67818;BME280;54614;47.576;7.524;2022-12-20T06:55:00;98874.47;;;20.29;33.89
67818;BME280;54614;47.576;7.524;2022-12-20T06:57:25;98874.09;;;20.32;33.85
67818;BME280;54614;47.576;7.524;2022-12-20T06:59:51;98872.91;;;20.35;33.93
67818;BME280;54614;47.576;7.524;2022-12-20T07:02:17;98873.94;;;20.34;33.75
67818;BME280;54614;47.576;7.524;2022-12-20T07:04:43;98872.78;;;20.28;33.99
67818;BME280;54614;47.576;7.524;2022-12-20T07:07:12;98875.28;;;20.29;33.98
67818;BME280;54614;47.576;7.524;2022-12-20T07:09:38;98871.63;;;20.31;34.00
67818;BME280;54614;47.576;7.524;2022-12-20T07:12:08;98867.47;;;20.28;33.94
67818;BME280;54614;47.576;7.524;2022-12-20T07:14:34;98862.75;;;20.30;34.12
67818;BME280;54614;47.576;7.524;2022-12-20T07:17:00;98861.09;;;20.29;34.08
67818;BME280;54614;47.576;7.524;2022-12-20T07:19:25;98865.63;;;20.28;34.00
67818;BME280;54614;47.576;7.524;2022-12-20T07:21:51;98867.94;;;20.32;33.94
67818;BME280;54614;47.576;7.524;2022-12-20T07:24:17;98860.75;;;20.32;33.92
67818;BME280;54614;47.576;7.524;2022-12-20T07:26:44;98862.41;;;20.33;33.88
67818;BME280;54614;47.576;7.524;2022-12-20T07:29:12;98858.06;;;20.32;33.89
67818;BME280;54614;47.576;7.524;2022-12-20T07:31:38;98858.78;;;20.26;33.91
67818;BME280;54614;47.576;7.524;2022-12-20T07:34:04;98854.94;;;20.28;33.99
67818;BME280;54614;47.576;7.524;2022-12-20T07:36:30;98870.44;;;20.33;33.88
67818;BME280;54614;47.576;7.524;2022-12-20T07:38:57;98860.94;;;20.31;34.04
67818;BME280;54614;47.576;7.524;2022-12-20T07:41:25;98869.59;;;20.33;33.94
67818;BME280;54614;47.576;7.524;2022-12-20T07:43:51;98866.44;;;20.29;34.00
67818;BME280;54614;47.576;7.524;2022-12-20T07:46:25;98863.13;;;20.27;34.07
67818;BME280;54614;47.576;7.524;2022-12-20T07:48:51;98861.47;;;20.26;33.98
67818;BME280;54614;47.576;7.524;2022-12-20T07:51:34;98865.25;;;20.32;33.89
67818;BME280;54614;47.576;7.524;2022-12-20T07:54:14;98851.72;;;20.33;34.01
67818;BME280;54614;47.576;7.524;2022-12-20T07:56:47;98841.03;;;20.33;34.00
67818;BME280;54614;47.576;7.524;2022-12-20T07:59:20;98845.06;;;20.29;33.97
67818;BME280;54614;47.576;7.524;2022-12-20T08:01:49;98857.31;;;20.23;34.23
67818;BME280;54614;47.576;7.524;2022-12-20T08:04:22;98851.44;;;20.28;34.24
67818;BME280;54614;47.576;7.524;2022-12-20T08:06:51;98850.91;;;20.33;34.08
67818;BME280;54614;47.576;7.524;2022-12-20T08:09:36;98858.91;;;20.33;33.89
67818;BME280;54614;47.576;7.524;2022-12-20T08:12:06;98860.09;;;20.30;33.98
67818;BME280;54614;47.576;7.524;2022-12-20T08:14:33;98856.59;;;20.29;33.88
67818;BME280;54614;47.576;7.524;2022-12-20T08:16:59;98859.25;;;20.29;34.05
67818;BME280;54614;47.576;7.524;2022-12-20T08:19:25;98846.25;;;20.26;34.10
67818;BME280;54614;47.576;7.524;2022-12-20T08:21:51;98849.22;;;20.32;34.01
67818;BME280;54614;47.576;7.524;2022-12-20T08:24:17;98853.38;;;20.34;33.83
67818;BME280;54614;47.576;7.524;2022-12-20T08:26:43;98856.06;;;20.34;33.81
67818;BME280;54614;47.576;7.524;2022-12-20T08:29:08;98846.91;;;20.28;33.89
67818;BME280;54614;47.576;7.524;2022-12-20T08:31:39;98863.47;;;20.24;34.37
67818;BME280;54614;47.576;7.524;2022-12-20T08:34:07;98859.44;;;20.28;33.95
67818;BME280;54614;47.576;7.524;2022-12-20T08:36:34;98853.09;;;20.29;34.16
67818;BME280;54614;47.576;7.524;2022-12-20T08:39:05;98854.94;;;20.28;34.20
67818;BME280;54614;47.576;7.524;2022-12-20T08:41:33;98853.09;;;20.29;34.10
67818;BME280;54614;47.576;7.524;2022-12-20T08:43:59;98855.09;;;20.27;34.08
67818;BME280;54614;47.576;7.524;2022-12-20T08:46:25;98858.31;;;20.22;34.27
67818;BME280;54614;47.576;7.524;2022-12-20T08:48:51;98851.59;;;20.26;33.96
67818;BME280;54614;47.576;7.524;2022-12-20T08:51:17;98849.13;;;20.25;34.04
67818;BME280;54614;47.576;7.524;2022-12-20T08:53:43;98847.44;;;20.24;34.15
67818;BME280;54614;47.576;7.524;2022-12-20T08:56:16;98842.09;;;20.24;34.21
67818;BME280;54614;47.576;7.524;2022-12-20T08:58:44;98843.78;;;20.25;34.05
67818;BME280;54614;47.576;7.524;2022-12-20T09:01:18;98844.97;;;20.22;34.13
67818;BME280;54614;47.576;7.524;2022-12-20T09:03:46;98849.94;;;20.25;34.23
67818;BME280;54614;47.576;7.524;2022-12-20T09:06:17;98846.09;;;20.28;34.12
67818;BME280;54614;47.576;7.524;2022-12-20T09:08:44;98850.78;;;20.26;34.19
67818;BME280;54614;47.576;7.524;2022-12-20T09:11:14;98850.94;;;20.24;34.23
67818;BME280;54614;47.576;7.524;2022-12-20T09:13:43;98843.41;;;20.28;34.04
67818;BME280;54614;47.576;7.524;2022-12-20T09:16:12;98850.59;;;20.27;34.15
67818;BME280;54614;47.576;7.524;2022-12-20T09:18:38;98849.94;;;20.25;33.98
67818;BME280;54614;47.576;7.524;2022-12-20T09:21:06;98840.91;;;20.26;34.15
67818;BME280;54614;47.576;7.524;2022-12-20T09:23:34;98848.75;;;20.28;34.21
67818;BME280;54614;47.576;7.524;2022-12-20T09:26:10;98846.91;;;20.28;33.93
67818;BME280;54614;47.576;7.524;2022-12-20T09:28:36;98835.41;;;20.28;34.07
67818;BME280;54614;47.576;7.524;2022-12-20T09:31:06;98832.06;;;20.26;34.34
67818;BME280;54614;47.576;7.524;2022-12-20T09:33:34;98831.41;;;20.24;34.19
67818;BME280;54614;47.576;7.524;2022-12-20T09:36:00;98821.75;;;20.23;34.28
67818;BME280;54614;47.576;7.524;2022-12-20T09:38:27;98817.06;;;20.25;34.21
67818;BME280;54614;47.576;7.524;2022-12-20T09:41:02;98809.53;;;20.28;34.06
67818;BME280;54614;47.576;7.524;2022-12-20T09:43:31;98810.72;;;20.26;34.06
67818;BME280;54614;47.576;7.524;2022-12-20T09:46:00;98815.75;;;20.21;34.20
67818;BME280;54614;47.576;7.524;2022-12-20T09:48:37;98808.41;;;20.23;34.22
67818;BME280;54614;47.576;7.524;2022-12-20T09:57:32;98796.34;;;20.27;34.30
67818;BME280;54614;47.576;7.524;2022-12-20T10:00:17;98782.34;;;20.25;34.25
67818;BME280;54614;47.576;7.524;2022-12-20T10:02:44;98783.00;;;20.27;34.00
67818;BME280;54614;47.576;7.524;2022-12-20T10:05:52;98780.69;;;20.24;34.20
67818;BME280;54614;47.576;7.524;2022-12-20T10:08:55;98772.00;;;20.22;34.34
67818;BME280;54614;47.576;7.524;2022-12-20T10:17:49;98782.81;;;20.28;34.19
67818;BME280;54614;47.576;7.524;2022-12-20T10:23:24;98780.31;;;20.27;34.22
67818;BME280;54614;47.576;7.524;2022-12-20T10:25:55;98784.47;;;20.29;34.18
67818;BME280;54614;47.576;7.524;2022-12-20T10:28:30;98782.44;;;20.32;34.17
67818;BME280;54614;47.576;7.524;2022-12-20T10:31:12;98764.75;;;20.31;34.21
67818;BME280;54614;47.576;7.524;2022-12-20T10:33:39;98765.59;;;20.31;34.11
67818;BME280;54614;47.576;7.524;2022-12-20T10:36:33;98765.06;;;20.36;34.47
67818;BME280;54614;47.576;7.524;2022-12-20T10:39:06;98764.03;;;20.37;34.14
67818;BME280;54614;47.576;7.524;2022-12-20T10:41:47;98760.25;;;20.31;34.17
67818;BME280;54614;47.576;7.524;2022-12-20T10:46:55;98738.66;;;20.41;33.97
67818;BME280;54614;47.576;7.524;2022-12-20T10:49:35;98731.81;;;20.38;33.93
67818;BME280;54614;47.576;7.524;2022-12-20T10:52:21;98733.13;;;20.42;34.23
67818;BME280;54614;47.576;7.524;2022-12-20T10:54:47;98726.13;;;20.41;34.07
67818;BME280;54614;47.576;7.524;2022-12-20T10:57:26;98730.66;;;20.41;34.10
67818;BME280;54614;47.576;7.524;2022-12-20T10:59:55;98724.09;;;20.43;34.18
67818;BME280;54614;47.576;7.524;2022-12-20T11:02:30;98733.66;;;20.38;34.25
67818;BME280;54614;47.576;7.524;2022-12-20T11:04:58;98736.50;;;20.36;34.16
67818;BME280;54614;47.576;7.524;2022-12-20T11:07:30;98744.66;;;20.43;34.12
67818;BME280;54614;47.576;7.524;2022-12-20T11:10:00;98735.34;;;20.39;34.30
67818;BME280;54614;47.576;7.524;2022-12-20T11:12:26;98731.28;;;20.43;34.20
67818;BME280;54614;47.576;7.524;2022-12-20T11:15:15;98737.16;;;20.38;34.41
67818;BME280;54614;47.576;7.524;2022-12-20T11:17:55;98737.75;;;20.48;34.48
67818;BME280;54614;47.576;7.524;2022-12-20T11:20:54;98730.81;;;20.39;34.27
67818;BME280;54614;47.576;7.524;2022-12-20T11:29:06;98697.69;;;20.48;34.09
67818;BME280;54614;47.576;7.524;2022-12-20T11:49:15;98663.03;;;20.40;34.42
67818;BME280;54614;47.576;7.524;2022-12-20T11:51:48;98665.97;;;20.45;34.26
67818;BME280;54614;47.576;7.524;2022-12-20T11:54:45;98663.03;;;20.55;34.42
67818;BME280;54614;47.576;7.524;2022-12-20T11:57:26;98661.66;;;20.74;34.05
67818;BME280;54614;47.576;7.524;2022-12-20T12:00:01;98656.03;;;20.69;34.23
67818;BME280;54614;47.576;7.524;2022-12-20T12:02:40;98652.06;;;20.65;34.22
67818;BME280;54614;47.576;7.524;2022-12-20T12:05:27;98643.78;;;20.59;34.23
67818;BME280;54614;47.576;7.524;2022-12-20T12:08:04;98638.81;;;20.56;34.53
67818;BME280;54614;47.576;7.524;2022-12-20T12:10:39;98634.75;;;20.60;34.31
67818;BME280;54614;47.576;7.524;2022-12-20T12:13:11;98630.41;;;20.59;34.30
67818;BME280;54614;47.576;7.524;2022-12-20T12:16:12;98636.31;;;20.55;34.33
67818;BME280;54614;47.576;7.524;2022-12-20T12:18:42;98638.25;;;20.61;34.28
67818;BME280;54614;47.576;7.524;2022-12-20T12:21:22;98648.84;;;20.69;34.29
67818;BME280;54614;47.576;7.524;2022-12-20T12:26:53;98637.41;;;20.60;34.47
67818;BME280;54614;47.576;7.524;2022-12-20T12:29:20;98630.41;;;20.59;34.47
67818;BME280;54614;47.576;7.524;2022-12-20T12:43:40;98596.41;;;20.68;34.63
67818;BME280;54614;47.576;7.524;2022-12-20T12:46:24;98594.38;;;20.70;34.35
67818;BME280;54614;47.576;7.524;2022-12-20T12:49:04;98601.38;;;20.71;34.39
67818;BME280;54614;47.576;7.524;2022-12-20T12:51:36;98594.19;;;20.72;34.36
67818;BME280;54614;47.576;7.524;2022-12-20T12:56:44;98567.53;;;20.78;34.01
67818;BME280;54614;47.576;7.524;2022-12-20T13:04:51;98573.81;;;20.71;34.59
67818;BME280;54614;47.576;7.524;2022-12-20T13:09:52;98580.19;;;20.70;34.69
67818;BME280;54614;47.576;7.524;2022-12-20T13:17:57;98573.00;;;20.70;34.84
67818;BME280;54614;47.576;7.524;2022-12-20T13:20:35;98571.59;;;20.74;34.79
67818;BME280;54614;47.576;7.524;2022-12-20T13:25:35;98556.13;;;20.70;34.58
67818;BME280;54614;47.576;7.524;2022-12-20T13:38:55;98531.88;;;20.71;34.65
67818;BME280;54614;47.576;7.524;2022-12-20T13:44:18;98530.22;;;20.70;34.73
67818;BME280;54614;47.576;7.524;2022-12-20T13:47:55;98543.59;;;20.70;34.79
67818;BME280;54614;47.576;7.524;2022-12-20T13:49:50;98541.28;;;20.67;34.76
67818;BME280;54614;47.576;7.524;2022-12-20T13:52:37;98542.13;;;20.68;34.91
67818;BME280;54614;47.576;7.524;2022-12-20T13:55:24;98549.13;;;20.69;34.89
67818;BME280;54614;47.576;7.524;2022-12-20T13:57:51;98542.13;;;20.68;34.89
67818;BME280;54614;47.576;7.524;2022-12-20T14:00:24;98556.22;;;20.76;34.72
67818;BME280;54614;47.576;7.524;2022-12-20T14:02:52;98557.22;;;20.75;34.73
67818;BME280;54614;47.576;7.524;2022-12-20T14:05:31;98552.91;;;20.74;35.10
67818;BME280;54614;47.576;7.524;2022-12-20T14:08:16;98562.75;;;20.74;34.70
67818;BME280;54614;47.576;7.524;2022-12-20T14:10:42;98561.56;;;20.76;34.77
67818;BME280;54614;47.576;7.524;2022-12-20T14:13:25;98565.34;;;20.82;34.48
67818;BME280;54614;47.576;7.524;2022-12-20T14:15:53;98564.16;;;20.84;34.69
67818;BME280;54614;47.576;7.524;2022-12-20T14:18:24;98559.91;;;20.90;34.68
67818;BME280;54614;47.576;7.524;2022-12-20T14:21:02;98553.28;;;20.86;34.46
67818;BME280;54614;47.576;7.524;2022-12-20T14:23:43;98552.19;;;20.80;34.53
67818;BME280;54614;47.576;7.524;2022-12-20T14:28:50;98555.31;;;20.84;34.70
67818;BME280;54614;47.576;7.524;2022-12-20T14:31:34;98552.63;;;20.84;34.46
67818;BME280;54614;47.576;7.524;2022-12-20T14:34:21;98555.13;;;20.85;34.66
67818;BME280;54614;47.576;7.524;2022-12-20T14:36:50;98549.97;;;20.84;34.69
67818;BME280;54614;47.576;7.524;2022-12-20T14:39:26;98549.66;;;20.94;34.51
67818;BME280;54614;47.576;7.524;2022-12-20T14:44:33;98539.97;;;20.92;34.39
67818;BME280;54614;47.576;7.524;2022-12-20T14:47:11;98552.31;;;20.94;34.46
67818;BME280;54614;47.576;7.524;2022-12-20T14:49:38;98555.44;;;20.97;34.28
67818;BME280;54614;47.576;7.524;2022-12-20T14:52:14;98548.81;;;20.93;34.45
67818;BME280;54614;47.576;7.524;2022-12-20T15:00:14;98539.44;;;20.82;34.61
67818;BME280;54614;47.576;7.524;2022-12-20T15:08:28;98561.09;;;20.87;34.59
67818;BME280;54614;47.576;7.524;2022-12-20T15:18:56;98557.59;;;20.87;34.43
67818;BME280;54614;47.576;7.524;2022-12-20T15:21:34;98550.59;;;20.86;34.42
67818;BME280;54614;47.576;7.524;2022-12-20T15:24:05;98556.59;;;20.88;34.66
67818;BME280;54614;47.576;7.524;2022-12-20T15:26:35;98552.81;;;20.82;34.44
67818;BME280;54614;47.576;7.524;2022-12-20T15:29:02;98544.59;;;20.84;34.43
67818;BME280;54614;47.576;7.524;2022-12-20T15:31:29;98542.38;;;20.87;34.55